Reepham, United Kingdom
Current Conditions -  °F | °C
As of 6:50 PM on Thursday 30 Oct 2014 (Local Time) from EGXW Reporting Station
Clear Clear  
Wind Chill: 13°   Ceiling: Unl
Heat Index: 13°   Visibility: 6mi
Dew Point: 13°   Wind: 9mph
Humidity: 100%   Direction: 180°S
Pressure: 30"   Gusts: NA
Location:  53.23°N, 0.43°W
Report Text: EGXW 301850Z 18008KT CAVOK 13/13 Q1016 BLU
Loading
Personal Weather Stations






























Interactive Weather Map
Tropical Storm Tracking
New forecast layout! Learn more

10-Day Weather Forecast

Advertisements
Track Severe Weather on mobile